createdAt,value
2023-01-08T00:00:05.278Z,81.10
2023-01-08T00:00:15.309Z,81.10
2023-01-08T00:00:25.421Z,81.10
2023-01-08T00:00:35.581Z,81.10
2023-01-08T00:00:45.630Z,81.10
2023-01-08T00:00:55.690Z,81.10
2023-01-08T00:01:05.768Z,81.10
2023-01-08T00:01:15.811Z,81.10
2023-01-08T00:01:25.840Z,81.10
2023-01-08T00:01:35.875Z,81.10
2023-01-08T00:01:45.913Z,81.10
2023-01-08T00:01:55.949Z,81.10
2023-01-08T00:02:05.973Z,81.10
2023-01-08T00:02:15.970Z,81.10
2023-01-08T00:02:25.971Z,81.10
2023-01-08T00:02:36.094Z,81.10
2023-01-08T00:02:46.012Z,81.10
2023-01-08T00:02:56.141Z,81.10
2023-01-08T00:03:06.317Z,81.20
2023-01-08T00:03:16.375Z,81.10
2023-01-08T00:03:26.348Z,81.10
2023-01-08T00:03:36.478Z,81.10
2023-01-08T00:03:46.454Z,81.10
2023-01-08T00:03:56.570Z,81.10
2023-01-08T00:04:06.631Z,81.20
2023-01-08T00:04:16.703Z,81.20
2023-01-08T00:04:26.738Z,81.20
2023-01-08T00:04:36.753Z,81.20
2023-01-08T00:04:46.769Z,81.20
2023-01-08T00:04:56.809Z,81.20
2023-01-08T00:05:06.820Z,81.10
2023-01-08T00:05:16.829Z,81.10
2023-01-08T00:05:26.839Z,81.10
2023-01-08T00:05:36.828Z,81.10
2023-01-08T00:05:46.828Z,81.10
2023-01-08T00:05:56.830Z,81.10
2023-01-08T00:06:06.842Z,81.10
2023-01-08T00:06:16.856Z,81.10
2023-01-08T00:06:26.843Z,81.10
2023-01-08T00:06:36.859Z,81.10
2023-01-08T00:06:46.858Z,81.10
2023-01-08T00:06:56.857Z,81.10
2023-01-08T00:07:06.887Z,81.10
2023-01-08T00:07:16.889Z,81.10
2023-01-08T00:07:26.894Z,81.10
2023-01-08T00:07:36.880Z,81.00
2023-01-08T00:07:46.879Z,81.00
2023-01-08T00:07:56.883Z,81.00
2023-01-08T00:08:06.898Z,81.00
2023-01-08T00:08:16.901Z,81.00
2023-01-08T00:08:26.899Z,81.00
2023-01-08T00:08:36.879Z,81.00
2023-01-08T00:08:46.904Z,81.00
2023-01-08T00:08:56.962Z,81.00
2023-01-08T00:09:06.952Z,81.00
2023-01-08T00:09:16.988Z,81.00
2023-01-08T00:09:27.031Z,81.00
2023-01-08T00:09:37.050Z,81.00
2023-01-08T00:09:47.169Z,81.00
2023-01-08T00:09:57.198Z,81.00
2023-01-08T00:10:07.251Z,81.00
2023-01-08T00:10:17.287Z,81.00
2023-01-08T00:10:27.416Z,81.00
2023-01-08T00:10:37.481Z,81.00
2023-01-08T00:10:47.531Z,81.00
2023-01-08T00:10:57.568Z,81.00
2023-01-08T00:11:07.620Z,81.00
2023-01-08T00:11:17.672Z,81.00
2023-01-08T00:11:27.709Z,81.00
2023-01-08T00:11:37.772Z,81.00
2023-01-08T00:11:47.801Z,81.00
2023-01-08T00:11:57.858Z,81.00
2023-01-08T00:12:07.880Z,81.00
2023-01-08T00:12:17.912Z,81.00
2023-01-08T00:12:27.947Z,81.00
2023-01-08T00:12:38.032Z,81.10
2023-01-08T00:12:48.109Z,81.10
2023-01-08T00:12:58.206Z,81.00
2023-01-08T00:13:08.248Z,81.00
2023-01-08T00:13:18.279Z,81.00
2023-01-08T00:13:28.390Z,81.00
2023-01-08T00:13:38.319Z,81.00
2023-01-08T00:13:48.353Z,81.00
2023-01-08T00:13:58.420Z,81.00
2023-01-08T00:14:08.458Z,81.00
2023-01-08T00:14:18.564Z,81.00
2023-01-08T00:14:28.604Z,81.00
2023-01-08T00:14:38.646Z,81.00
2023-01-08T00:14:48.693Z,81.00
2023-01-08T00:14:58.746Z,81.00
2023-01-08T00:15:08.778Z,81.00
2023-01-08T00:15:18.820Z,81.00
2023-01-08T00:15:28.851Z,80.90
2023-01-08T00:15:38.903Z,80.90
2023-01-08T00:15:48.963Z,80.79
2023-01-08T00:15:59.030Z,80.79
2023-01-08T00:16:09.168Z,80.79
2023-01-08T00:16:19.241Z,80.79
2023-01-08T00:16:29.385Z,80.79
2023-01-08T00:16:39.510Z,80.79
2023-01-08T00:16:49.476Z,80.79
2023-01-08T00:16:59.640Z,80.79
2023-01-08T00:17:09.575Z,80.79
2023-01-08T00:17:19.617Z,80.79
2023-01-08T00:17:29.700Z,80.79
2023-01-08T00:17:39.728Z,80.79
2023-01-08T00:17:49.768Z,80.79
2023-01-08T00:17:59.814Z,80.79
2023-01-08T00:18:09.852Z,80.79
2023-01-08T00:18:19.900Z,80.69
2023-01-08T00:18:29.948Z,80.69
2023-01-08T00:18:39.988Z,80.69
2023-01-08T00:18:50.027Z,80.69
2023-01-08T00:19:00.092Z,80.69
2023-01-08T00:19:10.137Z,80.69
2023-01-08T00:19:20.205Z,80.69
2023-01-08T00:19:30.217Z,80.69
2023-01-08T00:19:40.267Z,80.58
2023-01-08T00:19:50.305Z,80.58
2023-01-08T00:20:00.409Z,80.69
2023-01-08T00:20:10.452Z,80.58
2023-01-08T00:20:20.484Z,80.58
2023-01-08T00:20:30.551Z,80.58
2023-01-08T00:20:40.600Z,80.58
2023-01-08T00:20:50.623Z,80.58
2023-01-08T00:21:00.682Z,80.58
2023-01-08T00:21:10.713Z,80.58
2023-01-08T00:21:20.751Z,80.58
2023-01-08T00:21:30.788Z,80.69
2023-01-08T00:21:40.827Z,80.69
2023-01-08T00:21:50.853Z,80.69
2023-01-08T00:22:00.885Z,80.69
2023-01-08T00:22:10.967Z,80.69
2023-01-08T00:22:21.000Z,80.69
2023-01-08T00:22:31.047Z,80.69
2023-01-08T00:22:41.077Z,80.69
2023-01-08T00:22:51.226Z,80.69
2023-01-08T00:23:01.249Z,80.69
2023-01-08T00:23:11.328Z,80.69
2023-01-08T00:23:21.357Z,80.69
2023-01-08T00:23:31.453Z,80.69
2023-01-08T00:23:41.545Z,80.69
2023-01-08T00:23:51.589Z,80.69
2023-01-08T00:24:01.635Z,80.69
2023-01-08T00:24:11.669Z,80.69
2023-01-08T00:24:21.730Z,80.58
2023-01-08T00:24:31.768Z,80.58
2023-01-08T00:24:41.808Z,80.49
2023-01-08T00:24:51.847Z,80.49
2023-01-08T00:25:01.884Z,80.38
2023-01-08T00:25:11.928Z,80.38
2023-01-08T00:25:21.963Z,80.38
2023-01-08T00:25:32.016Z,80.38
2023-01-08T00:25:42.083Z,80.38
2023-01-08T00:25:52.139Z,80.38
2023-01-08T00:26:02.254Z,80.38
2023-01-08T00:26:12.265Z,80.49
2023-01-08T00:26:22.289Z,80.49
2023-01-08T00:26:32.357Z,80.49
2023-01-08T00:26:42.398Z,80.49
2023-01-08T00:26:52.476Z,80.49
2023-01-08T00:27:02.530Z,80.49
2023-01-08T00:27:12.576Z,80.49
2023-01-08T00:27:22.617Z,80.58
2023-01-08T00:27:32.660Z,80.58
2023-01-08T00:27:42.707Z,80.58
2023-01-08T00:27:52.747Z,80.58
2023-01-08T00:28:02.777Z,80.58
2023-01-08T00:28:12.809Z,80.58
2023-01-08T00:28:22.849Z,80.69
2023-01-08T00:28:32.881Z,80.69
2023-01-08T00:28:42.911Z,80.69
2023-01-08T00:28:52.960Z,80.69
2023-01-08T00:29:02.989Z,80.69
2023-01-08T00:29:13.037Z,80.69
2023-01-08T00:29:23.083Z,80.69
2023-01-08T00:29:33.147Z,80.69
2023-01-08T00:29:43.223Z,80.69
2023-01-08T00:29:53.265Z,80.69
2023-01-08T00:30:03.301Z,80.79
2023-01-08T00:30:13.336Z,80.79
2023-01-08T00:30:23.367Z,80.79
2023-01-08T00:30:33.461Z,80.79
2023-01-08T00:30:43.533Z,80.79
2023-01-08T00:30:53.600Z,80.79
2023-01-08T00:31:04.014Z,80.79
2023-01-08T00:31:13.691Z,80.79
2023-01-08T00:31:23.898Z,80.79
2023-01-08T00:31:33.785Z,80.79
2023-01-08T00:31:43.923Z,80.79
2023-01-08T00:31:53.896Z,80.79
2023-01-08T00:32:03.946Z,80.83
2023-01-08T00:32:13.991Z,80.83
2023-01-08T00:32:24.018Z,80.83
2023-01-08T00:32:34.092Z,80.83
2023-01-08T00:32:44.178Z,80.83
2023-01-08T00:32:54.217Z,80.83
2023-01-08T00:33:04.265Z,80.83
2023-01-08T00:33:14.288Z,80.83
2023-01-08T00:33:24.309Z,80.83
2023-01-08T00:33:34.355Z,80.83
2023-01-08T00:33:44.396Z,80.83
2023-01-08T00:33:54.424Z,80.83
2023-01-08T00:34:04.454Z,80.83
2023-01-08T00:34:14.494Z,80.73
2023-01-08T00:34:24.530Z,80.73
2023-01-08T00:34:34.558Z,80.83
2023-01-08T00:34:44.611Z,80.83
2023-01-08T00:34:54.648Z,80.83
2023-01-08T00:35:04.665Z,80.83
2023-01-08T00:35:14.685Z,80.83
2023-01-08T00:35:24.719Z,80.83
2023-01-08T00:35:34.776Z,80.83
2023-01-08T00:35:44.810Z,80.83
2023-01-08T00:35:54.836Z,80.83
2023-01-08T00:36:04.925Z,80.83
2023-01-08T00:36:14.974Z,80.83
2023-01-08T00:36:25.015Z,80.83
2023-01-08T00:36:35.038Z,80.83
2023-01-08T00:36:45.089Z,80.83
2023-01-08T00:36:55.107Z,80.83
2023-01-08T00:37:05.157Z,80.83
2023-01-08T00:37:15.186Z,80.83
2023-01-08T00:37:25.216Z,80.73
2023-01-08T00:37:35.267Z,80.73
2023-01-08T00:37:45.304Z,80.83
2023-01-08T00:37:55.336Z,80.73
2023-01-08T00:38:05.387Z,80.73
2023-01-08T00:38:15.407Z,80.83
2023-01-08T00:38:25.464Z,80.83
2023-01-08T00:38:35.524Z,80.83
2023-01-08T00:38:45.566Z,80.83
2023-01-08T00:38:55.589Z,80.83
2023-01-08T00:39:05.656Z,80.83
2023-01-08T00:39:15.690Z,80.83
2023-01-08T00:39:25.716Z,80.83
2023-01-08T00:39:35.798Z,80.83
2023-01-08T00:39:45.828Z,80.83
2023-01-08T00:39:55.867Z,80.73
2023-01-08T00:40:05.962Z,80.83
2023-01-08T00:40:16.003Z,80.73
2023-01-08T00:40:26.032Z,80.73
2023-01-08T00:40:36.147Z,80.73
2023-01-08T00:40:46.176Z,80.73
2023-01-08T00:40:56.215Z,80.73
2023-01-08T00:41:06.248Z,80.83
2023-01-08T00:41:16.290Z,80.83
2023-01-08T00:41:26.325Z,80.83
2023-01-08T00:41:36.393Z,80.83
2023-01-08T00:41:46.416Z,80.73
2023-01-08T00:41:56.471Z,80.83
2023-01-08T00:42:06.544Z,80.83
2023-01-08T00:42:16.586Z,80.73
2023-01-08T00:42:26.613Z,80.83
2023-01-08T00:42:36.656Z,80.83
2023-01-08T00:42:46.694Z,80.83
2023-01-08T00:42:56.726Z,80.83
2023-01-08T00:43:06.765Z,80.73
2023-01-08T00:43:16.810Z,80.83
2023-01-08T00:43:26.895Z,80.73
2023-01-08T00:43:36.915Z,80.73
2023-01-08T00:43:46.954Z,80.73
2023-01-08T00:43:56.975Z,80.73
2023-01-08T00:44:07.026Z,80.73
2023-01-08T00:44:17.047Z,80.73
2023-01-08T00:44:27.086Z,80.73
2023-01-08T00:44:37.114Z,80.73
2023-01-08T00:44:47.147Z,80.63
2023-01-08T00:44:57.186Z,80.63
2023-01-08T00:45:07.205Z,80.73
2023-01-08T00:45:17.236Z,80.73
2023-01-08T00:45:27.268Z,80.73
2023-01-08T00:45:37.360Z,80.73
2023-01-08T00:45:47.418Z,80.73
2023-01-08T00:45:57.492Z,80.63
2023-01-08T00:46:07.577Z,80.63
2023-01-08T00:46:17.699Z,80.63
2023-01-08T00:46:27.758Z,80.63
2023-01-08T00:46:37.787Z,80.63
2023-01-08T00:46:47.826Z,80.63
2023-01-08T00:46:57.915Z,80.63
2023-01-08T00:47:07.953Z,80.63
2023-01-08T00:47:18.013Z,80.63
2023-01-08T00:47:28.062Z,80.52
2023-01-08T00:47:38.089Z,80.52
2023-01-08T00:47:48.117Z,80.52
2023-01-08T00:47:58.184Z,80.52
2023-01-08T00:48:08.218Z,80.52
2023-01-08T00:48:18.245Z,80.52
2023-01-08T00:48:28.319Z,80.52
2023-01-08T00:48:38.334Z,80.52
2023-01-08T00:48:48.354Z,80.52
2023-01-08T00:48:58.385Z,80.52
2023-01-08T00:49:08.423Z,80.52
2023-01-08T00:49:18.465Z,80.52
2023-01-08T00:49:28.497Z,80.63
2023-01-08T00:49:38.606Z,80.63
2023-01-08T00:49:48.633Z,80.63
2023-01-08T00:49:58.675Z,80.63
2023-01-08T00:50:08.719Z,80.63
2023-01-08T00:50:18.754Z,80.63
2023-01-08T00:50:28.807Z,80.63
2023-01-08T00:50:38.853Z,80.63
2023-01-08T00:50:48.887Z,80.63
2023-01-08T00:50:58.930Z,80.63
2023-01-08T00:51:08.953Z,80.63
2023-01-08T00:51:19.023Z,80.63
2023-01-08T00:51:29.106Z,80.63
2023-01-08T00:51:39.143Z,80.63
2023-01-08T00:51:49.186Z,80.63
2023-01-08T00:51:59.267Z,80.63
2023-01-08T00:52:09.337Z,80.63
2023-01-08T00:52:19.374Z,80.63
2023-01-08T00:52:29.418Z,80.63
2023-01-08T00:52:39.462Z,80.63
2023-01-08T00:52:49.530Z,80.63
2023-01-08T00:52:59.567Z,80.63
2023-01-08T00:53:09.605Z,80.63
2023-01-08T00:53:19.644Z,80.63
2023-01-08T00:53:29.682Z,80.63
2023-01-08T00:53:39.744Z,80.63
2023-01-08T00:53:49.781Z,80.63
2023-01-08T00:53:59.825Z,80.63
2023-01-08T00:54:09.872Z,80.63
2023-01-08T00:54:19.904Z,80.73
2023-01-08T00:54:29.934Z,80.73
2023-01-08T00:54:39.989Z,80.73
2023-01-08T00:54:50.017Z,80.73
2023-01-08T00:55:00.076Z,80.73
2023-01-08T00:55:10.120Z,80.73
2023-01-08T00:55:20.178Z,80.73
2023-01-08T00:55:30.224Z,80.73
2023-01-08T00:55:40.264Z,80.73
2023-01-08T00:55:50.357Z,80.73
2023-01-08T00:56:00.424Z,80.73
2023-01-08T00:56:10.454Z,80.73
2023-01-08T00:56:20.491Z,80.73
2023-01-08T00:56:30.564Z,80.73
2023-01-08T00:56:40.601Z,80.73
2023-01-08T00:56:50.701Z,80.73
2023-01-08T00:57:00.748Z,80.73
2023-01-08T00:57:10.766Z,80.73
2023-01-08T00:57:20.826Z,80.83
2023-01-08T00:57:30.852Z,80.83
2023-01-08T00:57:40.876Z,80.83
2023-01-08T00:57:50.902Z,80.83
2023-01-08T00:58:00.934Z,80.83
2023-01-08T00:58:10.982Z,80.83
2023-01-08T00:58:21.015Z,80.83
2023-01-08T00:58:31.072Z,80.83
2023-01-08T00:58:41.118Z,80.83
2023-01-08T00:58:51.197Z,80.83
2023-01-08T00:59:01.263Z,80.83
2023-01-08T00:59:11.312Z,80.83
2023-01-08T00:59:21.343Z,80.83
2023-01-08T00:59:31.388Z,80.83
2023-01-08T00:59:41.413Z,80.83
2023-01-08T00:59:51.441Z,80.83
2023-01-08T01:00:01.482Z,80.83
2023-01-08T01:00:11.520Z,80.83
2023-01-08T01:00:21.553Z,80.83
2023-01-08T01:00:31.582Z,80.83
2023-01-08T01:00:41.656Z,80.83
2023-01-08T01:00:51.712Z,80.83
2023-01-08T01:01:01.785Z,80.83
2023-01-08T01:01:12.079Z,80.83
2023-01-08T01:01:22.181Z,80.83
2023-01-08T01:01:32.257Z,80.83
2023-01-08T01:01:42.357Z,80.83
2023-01-08T01:01:52.422Z,80.83
2023-01-08T01:02:02.466Z,80.83
2023-01-08T01:02:12.468Z,80.83
2023-01-08T01:02:22.621Z,80.83
2023-01-08T01:02:32.703Z,80.83
2023-01-08T01:02:42.732Z,80.83
2023-01-08T01:02:52.797Z,80.83
2023-01-08T01:03:02.807Z,80.83
2023-01-08T01:03:12.845Z,80.87
2023-01-08T01:03:22.883Z,80.87
2023-01-08T01:03:32.936Z,80.87
2023-01-08T01:03:42.960Z,80.87
2023-01-08T01:03:53.042Z,80.93
2023-01-08T01:04:03.193Z,80.87
2023-01-08T01:04:13.298Z,80.97
2023-01-08T01:04:23.411Z,80.93
2023-01-08T01:04:33.539Z,80.87
2023-01-08T01:04:43.596Z,80.97
2023-01-08T01:04:53.625Z,80.97
2023-01-08T01:05:03.653Z,80.97
2023-01-08T01:05:13.736Z,80.97
2023-01-08T01:05:24.010Z,80.97
2023-01-08T01:05:33.819Z,80.97
2023-01-08T01:05:43.834Z,80.97
2023-01-08T01:05:53.885Z,80.97
2023-01-08T01:06:03.922Z,80.97
2023-01-08T01:06:14.013Z,80.97
2023-01-08T01:06:24.090Z,80.97
2023-01-08T01:06:34.157Z,80.97
2023-01-08T01:06:44.212Z,80.97
2023-01-08T01:06:54.240Z,80.97
2023-01-08T01:07:04.296Z,81.07
2023-01-08T01:07:14.333Z,81.07
2023-01-08T01:07:24.372Z,81.07
2023-01-08T01:07:34.515Z,81.07
2023-01-08T01:07:44.564Z,81.07
2023-01-08T01:07:54.604Z,81.07
2023-01-08T01:08:04.628Z,81.07
2023-01-08T01:08:14.722Z,81.07
2023-01-08T01:08:24.815Z,81.07
2023-01-08T01:08:34.938Z,81.18
2023-01-08T01:08:44.983Z,81.18
2023-01-08T01:08:55.033Z,81.18
2023-01-08T01:09:05.081Z,81.18
2023-01-08T01:09:15.143Z,81.18
2023-01-08T01:09:25.183Z,81.18
2023-01-08T01:09:35.216Z,81.18
2023-01-08T01:09:45.248Z,81.18
2023-01-08T01:09:55.378Z,81.18
2023-01-08T01:10:05.423Z,81.18
2023-01-08T01:10:15.444Z,81.18
2023-01-08T01:10:25.478Z,81.18
2023-01-08T01:10:35.520Z,81.18
2023-01-08T01:10:45.534Z,81.18
2023-01-08T01:10:55.571Z,81.18
2023-01-08T01:11:05.609Z,81.18
2023-01-08T01:11:15.642Z,81.18
2023-01-08T01:11:25.708Z,81.18
2023-01-08T01:11:35.724Z,81.18
2023-01-08T01:11:45.754Z,81.18
2023-01-08T01:11:55.895Z,81.18
2023-01-08T01:12:05.906Z,81.18
2023-01-08T01:12:15.950Z,81.18
2023-01-08T01:12:25.961Z,81.18
2023-01-08T01:12:35.992Z,81.07
2023-01-08T01:12:46.078Z,81.07
2023-01-08T01:12:56.111Z,81.07
2023-01-08T01:13:06.145Z,81.07
2023-01-08T01:13:16.191Z,81.07
2023-01-08T01:13:26.246Z,81.07
2023-01-08T01:13:36.283Z,81.07
2023-01-08T01:13:46.312Z,81.07
2023-01-08T01:13:56.371Z,81.07
2023-01-08T01:14:06.402Z,81.07
2023-01-08T01:14:16.450Z,81.07
2023-01-08T01:14:26.462Z,81.07
2023-01-08T01:14:36.501Z,81.18
2023-01-08T01:14:46.543Z,81.18
2023-01-08T01:14:56.590Z,81.07
2023-01-08T01:15:06.595Z,81.18
2023-01-08T01:15:16.621Z,81.18
2023-01-08T01:15:26.629Z,81.18
2023-01-08T01:15:36.680Z,81.07
2023-01-08T01:15:46.692Z,81.18
2023-01-08T01:15:56.702Z,81.18
2023-01-08T01:16:06.718Z,81.18
2023-01-08T01:16:16.792Z,81.18
2023-01-08T01:16:26.921Z,81.18
2023-01-08T01:16:36.987Z,81.18
2023-01-08T01:16:47.066Z,81.18
2023-01-08T01:16:57.127Z,81.28
2023-01-08T01:17:07.155Z,81.28
2023-01-08T01:17:17.161Z,81.28
2023-01-08T01:17:27.151Z,81.28
2023-01-08T01:17:37.241Z,81.28
2023-01-08T01:17:47.256Z,81.28
2023-01-08T01:17:57.261Z,81.28
2023-01-08T01:18:07.274Z,81.28
2023-01-08T01:18:17.309Z,81.28
2023-01-08T01:18:27.291Z,81.28
2023-01-08T01:18:37.320Z,81.28
2023-01-08T01:18:47.312Z,81.28
2023-01-08T01:18:57.312Z,81.28
2023-01-08T01:19:07.322Z,81.18
2023-01-08T01:19:17.360Z,81.18
2023-01-08T01:19:27.352Z,81.28
2023-01-08T01:19:37.377Z,81.28
2023-01-08T01:19:47.410Z,81.28
2023-01-08T01:19:57.430Z,81.28
2023-01-08T01:20:07.463Z,81.28
2023-01-08T01:20:17.494Z,81.28
2023-01-08T01:20:27.493Z,81.28
2023-01-08T01:20:37.489Z,81.28
2023-01-08T01:20:47.503Z,81.28
2023-01-08T01:20:57.502Z,81.28
2023-01-08T01:21:07.510Z,81.28
2023-01-08T01:21:17.503Z,81.28
2023-01-08T01:21:27.524Z,81.28
2023-01-08T01:21:37.522Z,81.28
2023-01-08T01:21:47.593Z,81.28
2023-01-08T01:21:57.600Z,81.28
2023-01-08T01:22:07.601Z,81.28
2023-01-08T01:22:17.591Z,81.28
2023-01-08T01:22:27.601Z,81.28
2023-01-08T01:22:37.627Z,81.28
2023-01-08T01:22:47.628Z,81.28
2023-01-08T01:22:57.639Z,81.28
2023-01-08T01:23:07.811Z,81.28
2023-01-08T01:23:17.865Z,81.18
2023-01-08T01:23:27.892Z,81.18
2023-01-08T01:23:37.887Z,81.18
2023-01-08T01:23:47.887Z,81.18
2023-01-08T01:23:57.943Z,81.18
2023-01-08T01:24:07.967Z,81.18
2023-01-08T01:24:18.055Z,81.18
2023-01-08T01:24:28.098Z,81.18
2023-01-08T01:24:38.185Z,81.18
2023-01-08T01:24:48.171Z,81.18
2023-01-08T01:24:58.331Z,81.18
2023-01-08T01:25:08.368Z,81.18
2023-01-08T01:25:18.406Z,81.18
2023-01-08T01:25:28.423Z,81.18
2023-01-08T01:25:38.422Z,81.18
2023-01-08T01:25:48.438Z,81.18
2023-01-08T01:25:58.430Z,81.18
2023-01-08T01:26:08.440Z,81.18
2023-01-08T01:26:18.469Z,81.18
2023-01-08T01:26:28.480Z,81.28
2023-01-08T01:26:38.539Z,81.28
2023-01-08T01:26:48.552Z,81.28
2023-01-08T01:26:58.565Z,81.28
2023-01-08T01:27:08.609Z,81.28
2023-01-08T01:27:18.620Z,81.28
2023-01-08T01:27:28.610Z,81.28
2023-01-08T01:27:38.619Z,81.28
2023-01-08T01:27:48.649Z,81.28
2023-01-08T01:27:58.640Z,81.28
2023-01-08T01:28:08.643Z,81.28
2023-01-08T01:28:18.662Z,81.28
2023-01-08T01:28:28.650Z,81.28
2023-01-08T01:28:38.660Z,81.28
2023-01-08T01:28:48.671Z,81.28
2023-01-08T01:28:58.709Z,81.32
2023-01-08T01:29:08.760Z,81.28
2023-01-08T01:29:18.766Z,81.28
2023-01-08T01:29:28.786Z,81.28
2023-01-08T01:29:38.820Z,81.28
2023-01-08T01:29:48.832Z,81.28
2023-01-08T01:29:58.848Z,81.28
2023-01-08T01:30:08.858Z,81.28
2023-01-08T01:30:18.900Z,81.38
2023-01-08T01:30:28.906Z,81.38
2023-01-08T01:30:38.957Z,81.38
2023-01-08T01:30:48.960Z,81.38
2023-01-08T01:30:59.037Z,81.38
2023-01-08T01:31:09.120Z,81.38
2023-01-08T01:31:19.207Z,81.38
2023-01-08T01:31:29.208Z,81.42
2023-01-08T01:31:39.380Z,81.38
2023-01-08T01:31:49.372Z,81.42
2023-01-08T01:31:59.391Z,81.38
2023-01-08T01:32:09.379Z,81.42
2023-01-08T01:32:19.388Z,81.38
2023-01-08T01:32:29.429Z,81.38
2023-01-08T01:32:39.434Z,81.42
2023-01-08T01:32:49.460Z,81.42
2023-01-08T01:32:59.471Z,81.42
2023-01-08T01:33:09.492Z,81.42
2023-01-08T01:33:19.481Z,81.42
2023-01-08T01:33:29.549Z,81.42
2023-01-08T01:33:39.540Z,81.42
2023-01-08T01:33:49.547Z,81.52
2023-01-08T01:33:59.571Z,81.52
2023-01-08T01:34:09.604Z,81.42
2023-01-08T01:34:19.620Z,81.42
2023-01-08T01:34:29.627Z,81.42
2023-01-08T01:34:39.639Z,81.42
2023-01-08T01:34:49.636Z,81.42
2023-01-08T01:34:59.668Z,81.42
2023-01-08T01:35:09.659Z,81.42
2023-01-08T01:35:19.759Z,81.52
2023-01-08T01:35:29.761Z,81.52
2023-01-08T01:35:39.810Z,81.52
2023-01-08T01:35:49.829Z,81.42
2023-01-08T01:35:59.868Z,81.42
2023-01-08T01:36:09.882Z,81.42
2023-01-08T01:36:19.920Z,81.42
2023-01-08T01:36:29.923Z,81.52
2023-01-08T01:36:39.927Z,81.52
2023-01-08T01:36:49.935Z,81.52
2023-01-08T01:36:59.977Z,81.42
2023-01-08T01:37:10.009Z,81.52
2023-01-08T01:37:20.066Z,81.52
2023-01-08T01:37:30.089Z,81.52
2023-01-08T01:37:40.129Z,81.52
2023-01-08T01:37:50.177Z,81.52
2023-01-08T01:38:00.197Z,81.52
2023-01-08T01:38:10.249Z,81.52
2023-01-08T01:38:20.279Z,81.52
2023-01-08T01:38:30.328Z,81.52
2023-01-08T01:38:40.368Z,81.52
2023-01-08T01:38:50.466Z,81.52
2023-01-08T01:39:00.519Z,81.52
2023-01-08T01:39:10.583Z,81.52
2023-01-08T01:39:20.612Z,81.52
2023-01-08T01:39:30.650Z,81.52
2023-01-08T01:39:40.688Z,81.52
2023-01-08T01:39:50.771Z,81.52
2023-01-08T01:40:00.860Z,81.52
2023-01-08T01:40:10.968Z,81.52
2023-01-08T01:40:21.036Z,81.52
2023-01-08T01:40:31.086Z,81.52
2023-01-08T01:40:41.110Z,81.52
2023-01-08T01:40:51.207Z,81.52
2023-01-08T01:41:01.247Z,81.42
2023-01-08T01:41:11.348Z,81.42
2023-01-08T01:41:21.379Z,81.42
2023-01-08T01:41:31.450Z,81.52
2023-01-08T01:41:41.508Z,81.52
2023-01-08T01:41:51.548Z,81.52
2023-01-08T01:42:01.591Z,81.52
2023-01-08T01:42:11.627Z,81.52
2023-01-08T01:42:21.678Z,81.52
2023-01-08T01:42:31.759Z,81.52
2023-01-08T01:42:41.820Z,81.52
2023-01-08T01:42:51.846Z,81.52
2023-01-08T01:43:01.876Z,81.52
2023-01-08T01:43:11.909Z,81.52
2023-01-08T01:43:21.959Z,81.52
2023-01-08T01:43:32.012Z,81.62
2023-01-08T01:43:42.065Z,81.52
2023-01-08T01:43:52.165Z,81.62
2023-01-08T01:44:02.229Z,81.62
2023-01-08T01:44:12.267Z,81.62
2023-01-08T01:44:22.345Z,81.62
2023-01-08T01:44:32.398Z,81.62
2023-01-08T01:44:42.450Z,81.62
2023-01-08T01:44:52.527Z,81.62
2023-01-08T01:45:02.545Z,81.62
2023-01-08T01:45:12.569Z,81.62
2023-01-08T01:45:22.619Z,81.62
2023-01-08T01:45:32.708Z,81.62
2023-01-08T01:45:42.796Z,81.62
2023-01-08T01:45:52.821Z,81.73
2023-01-08T01:46:03.006Z,81.73
2023-01-08T01:46:12.946Z,81.73
2023-01-08T01:46:22.987Z,81.73
2023-01-08T01:46:33.039Z,81.73
2023-01-08T01:46:43.087Z,81.73
2023-01-08T01:46:53.136Z,81.73
2023-01-08T01:47:03.194Z,81.73
2023-01-08T01:47:13.206Z,81.73
2023-01-08T01:47:23.368Z,81.73
2023-01-08T01:47:33.397Z,81.73
2023-01-08T01:47:43.438Z,81.73
2023-01-08T01:47:53.468Z,81.83
2023-01-08T01:48:03.518Z,81.83
2023-01-08T01:48:13.538Z,81.83
2023-01-08T01:48:23.599Z,81.83
2023-01-08T01:48:33.757Z,81.83
2023-01-08T01:48:43.787Z,81.73
2023-01-08T01:48:53.819Z,81.73
2023-01-08T01:49:03.882Z,81.73
2023-01-08T01:49:13.907Z,81.73
2023-01-08T01:49:23.937Z,81.73
2023-01-08T01:49:33.976Z,81.73
2023-01-08T01:49:44.047Z,81.73
2023-01-08T01:49:54.094Z,81.83
2023-01-08T01:50:04.124Z,81.83
2023-01-08T01:50:14.166Z,81.83
2023-01-08T01:50:24.215Z,81.83
2023-01-08T01:50:34.281Z,81.83
2023-01-08T01:50:44.314Z,81.83
2023-01-08T01:50:54.350Z,81.83
2023-01-08T01:51:04.387Z,81.83
2023-01-08T01:51:14.425Z,81.83
2023-01-08T01:51:24.495Z,81.83
2023-01-08T01:51:34.529Z,81.83
2023-01-08T01:51:44.565Z,81.83
2023-01-08T01:51:54.588Z,81.73
2023-01-08T01:52:04.660Z,81.83
2023-01-08T01:52:14.673Z,81.73
2023-01-08T01:52:24.716Z,81.73
2023-01-08T01:52:34.746Z,81.83
2023-01-08T01:52:44.847Z,81.73
2023-01-08T01:52:54.875Z,81.73
2023-01-08T01:53:04.911Z,81.76
2023-01-08T01:53:14.991Z,81.73
2023-01-08T01:53:25.029Z,81.73
2023-01-08T01:53:35.179Z,81.73
2023-01-08T01:53:45.227Z,81.83
2023-01-08T01:53:55.278Z,81.73
2023-01-08T01:54:05.324Z,81.87
2023-01-08T01:54:15.411Z,81.83
2023-01-08T01:54:25.444Z,81.83
2023-01-08T01:54:35.502Z,81.83
2023-01-08T01:54:45.573Z,81.87
2023-01-08T01:54:55.601Z,81.87
2023-01-08T01:55:05.634Z,81.83
2023-01-08T01:55:15.666Z,81.87
2023-01-08T01:55:25.709Z,81.83
2023-01-08T01:55:35.727Z,81.87
2023-01-08T01:55:45.766Z,81.83
2023-01-08T01:55:55.806Z,81.87
2023-01-08T01:56:05.826Z,81.83
2023-01-08T01:56:15.865Z,81.83
2023-01-08T01:56:25.992Z,81.87
2023-01-08T01:56:36.014Z,81.87
2023-01-08T01:56:46.052Z,81.87
2023-01-08T01:56:56.079Z,81.87
2023-01-08T01:57:06.106Z,81.87
2023-01-08T01:57:16.137Z,81.87
2023-01-08T01:57:26.196Z,81.87
2023-01-08T01:57:36.272Z,81.87
2023-01-08T01:57:46.325Z,81.87
2023-01-08T01:57:56.385Z,81.87
2023-01-08T01:58:06.434Z,81.87
2023-01-08T01:58:16.466Z,81.87
2023-01-08T01:58:26.500Z,81.87
2023-01-08T01:58:36.527Z,81.87
2023-01-08T01:58:46.557Z,81.87
2023-01-08T01:58:56.597Z,81.87
2023-01-08T01:59:06.626Z,81.87
2023-01-08T01:59:16.703Z,81.87
2023-01-08T01:59:26.735Z,81.87
2023-01-08T01:59:36.819Z,81.87
2023-01-08T01:59:46.855Z,81.97
2023-01-08T01:59:56.896Z,81.97
2023-01-08T02:00:06.949Z,81.97
2023-01-08T02:00:16.984Z,81.97
2023-01-08T02:00:27.015Z,81.97
2023-01-08T02:00:37.066Z,81.97
2023-01-08T02:00:47.094Z,81.97
2023-01-08T02:00:57.205Z,81.97
2023-01-08T02:01:07.321Z,81.97
2023-01-08T02:01:17.373Z,81.97
2023-01-08T02:01:27.429Z,81.97
2023-01-08T02:01:37.433Z,81.97
2023-01-08T02:01:47.487Z,81.97
2023-01-08T02:01:57.512Z,81.97
2023-01-08T02:02:07.559Z,81.97
2023-01-08T02:02:17.628Z,81.97
2023-01-08T02:02:27.590Z,81.97
2023-01-08T02:02:37.670Z,81.97
2023-01-08T02:02:47.720Z,82.07
2023-01-08T02:02:57.774Z,81.97
2023-01-08T02:03:07.897Z,82.07
2023-01-08T02:03:17.998Z,82.07
2023-01-08T02:03:28.075Z,82.07
2023-01-08T02:03:38.208Z,82.07
2023-01-08T02:03:48.296Z,82.07
2023-01-08T02:03:58.361Z,82.07
2023-01-08T02:04:08.456Z,82.07
2023-01-08T02:04:18.561Z,82.07
2023-01-08T02:04:28.699Z,82.07
2023-01-08T02:04:38.746Z,82.07
2023-01-08T02:04:48.795Z,82.07
2023-01-08T02:04:58.825Z,82.07
2023-01-08T02:05:08.891Z,82.07
2023-01-08T02:05:18.905Z,82.07
2023-01-08T02:05:28.935Z,82.07
2023-01-08T02:05:38.975Z,82.07
2023-01-08T02:05:48.995Z,82.07
2023-01-08T02:05:59.035Z,82.07
2023-01-08T02:06:09.075Z,82.07
2023-01-08T02:06:19.137Z,82.07
2023-01-08T02:06:29.187Z,82.07
2023-01-08T02:06:39.224Z,82.18
2023-01-08T02:06:49.307Z,82.18
2023-01-08T02:06:59.334Z,82.18
2023-01-08T02:07:09.376Z,82.18
2023-01-08T02:07:19.419Z,82.18
2023-01-08T02:07:29.485Z,82.18
2023-01-08T02:07:39.515Z,82.18
2023-01-08T02:07:49.547Z,82.18
2023-01-08T02:07:59.564Z,82.18
2023-01-08T02:08:09.595Z,82.18
2023-01-08T02:08:19.623Z,82.18
2023-01-08T02:08:29.663Z,82.18
2023-01-08T02:08:39.680Z,82.18
2023-01-08T02:08:49.799Z,82.18
2023-01-08T02:08:59.834Z,82.18
2023-01-08T02:09:09.866Z,82.18
2023-01-08T02:09:19.952Z,82.18